Time;durP1;ratioP1;P1;durP2;ratioP2;P2;SDS_P1;SDS_P2;PMS_P1;PMS_P2;Temp;Humidity;BMP_temperature;BMP_pressure;BME280_temperature;BME280_humidity;BME280_pressure;Samples;Min_cycle;Max_cycle;Signal;HPM_P1;HPM_P2
2022/12/09 00:02:16;;;;;;;30.30;13.18;;;1.20;99.90;;;;;;5037059;28;20437;-77
2022/12/09 00:04:42;;;;;;;35.70;13.68;;;1.20;99.90;;;;;;5036531;28;20536;-79
2022/12/09 00:07:08;;;;;;;37.08;13.40;;;1.20;99.90;;;;;;5036399;28;20419;-79
2022/12/09 00:09:34;;;;;;;37.05;13.57;;;1.20;99.90;;;;;;5070210;28;20045;-78
2022/12/09 00:11:59;;;;;;;39.67;14.45;;;1.20;99.90;;;;;;5020123;28;20598;-79
2022/12/09 00:14:25;;;;;;;37.83;13.90;;;1.20;99.90;;;;;;5037209;28;20059;-79
2022/12/09 00:16:51;;;;;;;34.85;13.25;;;1.70;99.90;;;;;;5053091;28;20049;-77
2022/12/09 00:19:17;;;;;;;35.53;13.63;;;1.20;99.90;;;;;;5036544;28;20055;-76
2022/12/09 00:21:43;;;;;;;34.33;14.13;;;1.20;99.90;;;;;;5019780;28;20060;-77
2022/12/09 00:24:11;;;;;;;33.58;11.95;;;1.10;99.90;;;;;;5036658;28;20215;-79
2022/12/09 00:26:37;;;;;;;32.63;12.23;;;1.00;99.90;;;;;;5036893;28;20049;-79
2022/12/09 00:29:03;;;;;;;28.55;11.45;;;1.00;99.90;;;;;;5053115;28;20483;-78
2022/12/09 00:31:32;;;;;;;27.58;11.02;;;0.90;99.90;;;;;;5053147;28;20501;-78
2022/12/09 00:34:00;;;;;;;26.83;12.00;;;0.90;99.90;;;;;;5036650;28;20049;-77
2022/12/09 00:36:27;;;;;;;26.98;11.05;;;0.80;99.90;;;;;;5053002;28;20040;-78
2022/12/09 00:38:55;;;;;;;25.73;10.82;;;0.80;99.90;;;;;;5036380;28;20059;-77
2022/12/09 00:41:21;;;;;;;28.70;11.15;;;0.70;99.90;;;;;;5036432;28;20402;-77
2022/12/09 00:43:47;;;;;;;29.50;10.98;;;0.70;99.90;;;;;;5052577;28;20045;-78
2022/12/09 00:46:14;;;;;;;28.83;11.13;;;1.10;99.90;;;;;;5036512;28;20162;-77
2022/12/09 00:48:41;;;;;;;24.88;9.82;;;0.80;99.90;;;;;;5036740;28;20462;-78
2022/12/09 00:51:09;;;;;;;26.15;9.80;;;1.50;99.90;;;;;;5052449;28;20088;-77
2022/12/09 00:53:35;;;;;;;29.02;10.57;;;0.80;99.90;;;;;;5036426;28;20044;-78
2022/12/09 00:56:01;;;;;;;26.33;10.02;;;0.80;99.90;;;;;;5036459;28;20041;-78
2022/12/09 00:58:27;;;;;;;22.67;9.18;;;0.80;99.90;;;;;;5036647;28;20052;-79
2022/12/09 01:00:53;;;;;;;25.85;9.30;;;0.80;99.90;;;;;;5006832;28;20048;-78
2022/12/09 01:03:19;;;;;;;21.30;8.68;;;0.90;99.90;;;;;;5039526;28;20049;-78
2022/12/09 01:05:46;;;;;;;21.02;8.93;;;1.70;99.90;;;;;;5042860;28;20048;-77
2022/12/09 01:08:13;;;;;;;23.35;8.82;;;1.00;99.90;;;;;;5043263;28;20052;-77
2022/12/09 01:10:40;;;;;;;21.92;8.85;;;1.00;99.90;;;;;;5043417;28;20048;-77
2022/12/09 01:13:07;;;;;;;22.75;9.27;;;1.10;99.90;;;;;;5059747;28;20174;-77
2022/12/09 01:15:33;;;;;;;20.75;8.38;;;2.20;99.90;;;;;;5076355;28;20048;-77
2022/12/09 01:17:59;;;;;;;20.98;8.05;;;1.20;99.90;;;;;;5076000;28;20056;-76
2022/12/09 01:20:25;;;;;;;20.90;8.25;;;1.20;99.90;;;;;;5042862;28;20048;-77
2022/12/09 01:22:51;;;;;;;20.52;7.70;;;1.20;99.90;;;;;;5059408;28;20123;-77
2022/12/09 01:25:17;;;;;;;21.55;8.40;;;1.20;99.90;;;;;;5059603;28;20052;-78
2022/12/09 01:27:42;;;;;;;19.33;8.30;;;1.20;99.90;;;;;;5043713;28;20059;-78
2022/12/09 01:30:11;;;;;;;19.42;7.35;;;1.20;99.90;;;;;;5027115;28;20164;-78
2022/12/09 01:32:37;;;;;;;22.25;7.47;;;1.10;99.90;;;;;;5060667;28;20048;-78
2022/12/09 01:35:04;;;;;;;17.67;7.45;;;1.10;99.90;;;;;;5059702;28;20482;-77
2022/12/09 01:37:34;;;;;;;16.63;6.78;;;1.20;99.90;;;;;;5010747;28;20083;-77
2022/12/09 01:40:00;;;;;;;18.48;6.95;;;1.20;99.90;;;;;;5059332;28;20047;-77
2022/12/09 01:42:27;;;;;;;17.38;7.57;;;1.20;99.90;;;;;;5059689;28;20128;-79
2022/12/09 01:45:20;;;;;;;20.83;8.13;;;1.20;99.90;;;;;;5026730;28;20063;-79
2022/12/09 01:48:01;;;;;;;19.65;7.10;;;1.30;99.90;;;;;;5042365;28;20067;-79
2022/12/09 01:50:29;;;;;;;18.52;7.93;;;1.20;99.90;;;;;;5059115;28;20045;-79
2022/12/09 01:52:56;;;;;;;19.08;7.50;;;1.20;99.90;;;;;;5059108;28;20121;-76
2022/12/09 01:55:22;;;;;;;19.55;7.85;;;1.30;99.90;;;;;;5043021;28;20075;-79
2022/12/09 01:57:48;;;;;;;15.90;7.03;;;1.20;99.90;;;;;;5042545;28;20051;-79
2022/12/09 02:00:14;;;;;;;19.98;7.60;;;1.20;99.90;;;;;;5026256;28;20398;-79
2022/12/09 02:02:44;;;;;;;17.27;7.82;;;1.10;99.90;;;;;;5009633;28;20113;-79
2022/12/09 02:05:10;;;;;;;20.35;7.45;;;1.10;99.90;;;;;;5042368;28;20131;-79
2022/12/09 02:07:36;;;;;;;19.65;7.63;;;1.00;99.90;;;;;;5009693;28;20060;-79
2022/12/09 02:10:06;;;;;;;20.90;8.38;;;1.00;99.90;;;;;;5025974;28;20080;-78
2022/12/09 02:12:55;;;;;;;20.25;8.98;;;1.00;99.90;;;;;;5059109;28;20101;-80
2022/12/09 02:15:26;;;;;;;19.13;8.10;;;1.00;99.90;;;;;;5042378;28;20067;-79
2022/12/09 02:18:06;;;;;;;19.65;7.80;;;1.00;99.90;;;;;;5058945;28;20048;-79
2022/12/09 02:20:35;;;;;;;23.98;9.30;;;1.00;99.90;;;;;;5058719;28;20048;-78
2022/12/09 02:23:07;;;;;;;18.33;7.57;;;0.90;99.90;;;;;;5041314;28;20114;-78
2022/12/09 02:25:47;;;;;;;21.95;8.85;;;0.90;99.90;;;;;;5041631;28;20098;-78
2022/12/09 02:28:34;;;;;;;22.38;8.90;;;0.90;99.90;;;;;;5057977;28;20532;-78
2022/12/09 02:31:13;;;;;;;19.58;8.55;;;1.00;99.90;;;;;;5042450;28;20509;-78
2022/12/09 02:33:56;;;;;;;23.35;9.48;;;1.10;99.90;;;;;;5058513;28;20506;-76
2022/12/09 02:36:27;;;;;;;20.38;9.10;;;1.00;99.90;;;;;;5041407;28;20044;-77
2022/12/09 02:38:53;;;;;;;19.80;8.55;;;1.00;99.90;;;;;;5057935;28;20044;-75
2022/12/09 02:41:25;;;;;;;20.40;9.15;;;1.00;99.90;;;;;;5057245;28;20173;-75
2022/12/09 02:43:57;;;;;;;21.58;9.30;;;1.00;99.90;;;;;;5057775;28;20055;-75
2022/12/09 02:46:24;;;;;;;25.75;9.65;;;1.30;99.90;;;;;;5057080;28;20066;-76
2022/12/09 02:48:54;;;;;;;23.70;9.15;;;1.00;99.90;;;;;;5025136;28;20138;-77
2022/12/09 02:51:22;;;;;;;22.95;8.82;;;1.80;99.90;;;;;;5057825;28;20487;-77
2022/12/09 02:53:53;;;;;;;20.75;8.90;;;0.90;99.90;;;;;;5041229;28;20083;-76
2022/12/09 02:56:21;;;;;;;22.52;9.18;;;1.00;99.90;;;;;;5058004;28;20040;-76
2022/12/09 02:58:50;;;;;;;22.05;9.30;;;0.90;99.90;;;;;;5057585;28;20494;-76
2022/12/09 03:01:31;;;;;;;22.92;9.15;;;0.90;99.90;;;;;;5040661;28;20044;-77
2022/12/09 03:03:57;;;;;;;25.85;9.65;;;0.90;99.90;;;;;;5041618;28;20048;-77
2022/12/09 03:06:29;;;;;;;25.90;9.02;;;0.90;99.90;;;;;;5040638;28;20064;-80
2022/12/09 03:09:02;;;;;;;24.02;8.65;;;0.80;99.90;;;;;;5058010;28;20091;-79
2022/12/09 03:11:31;;;;;;;26.88;9.60;;;0.80;99.90;;;;;;5075345;28;20128;-79
2022/12/09 03:14:01;;;;;;;25.27;8.95;;;0.80;99.90;;;;;;5057942;28;20055;-77
2022/12/09 03:16:50;;;;;;;20.80;9.02;;;0.80;99.90;;;;;;5057339;28;20045;-78
2022/12/09 03:19:25;;;;;;;23.40;9.40;;;1.60;99.90;;;;;;5057785;28;20040;-79
2022/12/09 03:21:56;;;;;;;21.98;9.15;;;0.80;99.90;;;;;;5056839;28;20505;-79
2022/12/09 03:24:33;;;;;;;20.48;8.65;;;1.30;99.90;;;;;;5057934;28;20049;-77
2022/12/09 03:27:05;;;;;;;21.50;9.25;;;0.70;99.90;;;;;;5057601;28;20131;-77
2022/12/09 03:29:35;;;;;;;21.75;9.38;;;0.70;99.90;;;;;;5023732;28;20437;-76
2022/12/09 03:32:01;;;;;;;22.77;9.65;;;1.10;99.90;;;;;;5057145;28;20052;-77
2022/12/09 03:34:32;;;;;;;21.33;8.98;;;0.70;99.90;;;;;;5024344;28;20044;-77
2022/12/09 03:37:00;;;;;;;24.00;9.43;;;1.50;99.90;;;;;;5040751;28;20073;-78
2022/12/09 03:39:30;;;;;;;21.33;9.05;;;0.50;99.90;;;;;;5057280;28;20052;-78
2022/12/09 03:42:01;;;;;;;22.13;9.55;;;0.40;99.90;;;;;;5040315;28;20041;-78
2022/12/09 03:44:36;;;;;;;21.02;8.88;;;0.40;99.90;;;;;;5056953;28;20048;-77
2022/12/09 03:47:04;;;;;;;23.63;8.48;;;0.50;99.90;;;;;;5040437;28;20084;-77
2022/12/09 03:49:30;;;;;;;25.83;8.75;;;0.30;99.90;;;;;;5040111;28;20049;-76
2022/12/09 03:52:05;;;;;;;24.65;9.23;;;0.20;99.90;;;;;;5040245;28;20127;-77
2022/12/09 03:54:40;;;;;;;19.55;9.10;;;0.10;99.90;;;;;;5040349;28;20067;-78
2022/12/09 03:57:10;;;;;;;22.85;9.68;;;0.00;99.90;;;;;;5057244;28;20106;-77
2022/12/09 03:59:36;;;;;;;22.45;8.93;;;-0.10;99.90;;;;;;5056927;28;20052;-78
2022/12/09 04:02:05;;;;;;;24.42;8.75;;;0.80;99.90;;;;;;5023708;28;20036;-79
2022/12/09 04:04:32;;;;;;;30.02;9.82;;;-0.30;99.90;;;;;;5056825;28;20071;-78
2022/12/09 04:06:59;;;;;;;23.98;9.52;;;0.80;99.90;;;;;;5039846;28;20052;-79
2022/12/09 04:09:25;;;;;;;25.58;9.52;;;-0.40;99.90;;;;;;5040129;28;20040;-81
2022/12/09 04:11:51;;;;;;;24.17;9.52;;;-0.30;99.90;;;;;;5039976;28;20048;-80
2022/12/09 04:14:18;;;;;;;29.02;9.35;;;-0.40;99.90;;;;;;5040280;28;20048;-80
2022/12/09 04:16:44;;;;;;;25.35;9.68;;;-0.40;99.90;;;;;;5056412;28;20390;-78
2022/12/09 04:19:10;;;;;;;29.42;10.25;;;-0.40;99.90;;;;;;5039784;28;20051;-79
2022/12/09 04:21:36;;;;;;;25.45;9.00;;;-0.40;99.90;;;;;;5039513;28;20045;-80
2022/12/09 04:24:02;;;;;;;25.83;9.40;;;-0.40;99.90;;;;;;5040449;28;20044;-80
2022/12/09 04:26:28;;;;;;;25.85;10.00;;;-0.50;99.90;;;;;;5007504;28;20052;-78
2022/12/09 04:28:53;;;;;;;29.13;9.85;;;-0.50;99.90;;;;;;5024161;28;20050;-78
2022/12/09 04:31:19;;;;;;;28.63;11.20;;;-0.40;99.90;;;;;;5056731;28;20059;-78
2022/12/09 04:33:46;;;;;;;27.95;9.90;;;-0.40;99.90;;;;;;5055882;28;20076;-79
2022/12/09 04:36:14;;;;;;;26.75;9.23;;;-0.40;99.90;;;;;;5056278;28;20546;-77
2022/12/09 04:38:41;;;;;;;26.40;9.90;;;-0.50;99.90;;;;;;4704406;28;10000763;-79
2022/12/09 04:41:07;;;;;;;28.00;10.73;;;-0.40;99.90;;;;;;5071827;28;20504;-77
2022/12/09 04:43:34;;;;;;;32.85;10.50;;;-0.20;99.90;;;;;;5074732;28;20052;-78
2022/12/09 04:46:02;;;;;;;26.25;10.27;;;-0.30;99.90;;;;;;5041301;28;20055;-79
2022/12/09 04:48:28;;;;;;;29.33;11.15;;;0.50;99.90;;;;;;5057730;28;20047;-78
2022/12/09 04:50:54;;;;;;;30.10;10.45;;;-0.10;99.90;;;;;;5057516;28;20052;-79
2022/12/09 04:53:20;;;;;;;33.60;11.27;;;-0.10;99.90;;;;;;5074211;28;20063;-77
2022/12/09 04:55:46;;;;;;;31.00;10.90;;;-0.20;99.90;;;;;;5057277;28;20089;-80
2022/12/09 04:58:11;;;;;;;31.92;9.43;;;-0.10;99.90;;;;;;5040356;28;20188;-77
2022/12/09 05:00:38;;;;;;;28.20;9.93;;;-0.30;99.90;;;;;;5073975;28;20040;-78
2022/12/09 05:03:04;;;;;;;24.80;10.60;;;-0.10;99.90;;;;;;5056634;28;20158;-78
2022/12/09 05:05:29;;;;;;;28.98;10.18;;;-0.40;99.90;;;;;;5056793;28;20132;-81
2022/12/09 05:07:56;;;;;;;28.00;9.85;;;-0.40;99.90;;;;;;5057362;28;20052;-79
2022/12/09 05:10:22;;;;;;;31.58;10.25;;;-0.50;99.90;;;;;;5056872;28;20051;-80
2022/12/09 05:12:48;;;;;;;22.63;9.48;;;-0.60;99.90;;;;;;5040509;28;20071;-79
2022/12/09 05:15:14;;;;;;;30.35;10.60;;;-0.60;99.90;;;;;;5056951;28;20040;-80
2022/12/09 05:17:40;;;;;;;28.23;10.57;;;-0.60;99.90;;;;;;5039843;28;20052;-79
2022/12/09 05:20:07;;;;;;;28.38;10.40;;;-0.60;99.90;;;;;;5073834;28;20067;-79
2022/12/09 05:22:33;;;;;;;28.27;10.68;;;-0.60;99.90;;;;;;5056626;28;20047;-79
2022/12/09 05:24:59;;;;;;;28.90;10.48;;;-0.70;99.90;;;;;;5024033;28;20489;-79
2022/12/09 05:27:25;;;;;;;26.30;9.57;;;-0.70;99.90;;;;;;5056282;28;20471;-78
2022/12/09 05:29:51;;;;;;;26.67;10.00;;;-0.90;99.90;;;;;;5040796;28;20056;-78
2022/12/09 05:32:17;;;;;;;28.98;10.50;;;-0.90;99.90;;;;;;5040443;28;20127;-79
2022/12/09 05:34:43;;;;;;;24.67;9.90;;;-1.00;99.90;;;;;;5055942;28;20047;-78
2022/12/09 05:37:13;;;;;;;26.95;9.68;;;-1.00;99.90;;;;;;5042049;28;20052;-79
2022/12/09 05:39:39;;;;;;;27.40;10.15;;;-1.00;99.90;;;;;;5058596;28;20040;-79
2022/12/09 05:42:06;;;;;;;33.03;10.57;;;-1.00;99.90;;;;;;5027247;28;20044;-78
2022/12/09 05:44:32;;;;;;;32.17;10.85;;;-0.90;99.90;;;;;;5060340;28;20047;-79
2022/12/09 05:46:58;;;;;;;30.73;9.82;;;-1.00;99.90;;;;;;5062760;28;20040;-79
2022/12/09 05:49:23;;;;;;;26.15;10.18;;;-1.00;99.90;;;;;;5062544;28;20415;-79
2022/12/09 05:51:49;;;;;;;28.73;10.38;;;-1.10;99.90;;;;;;5029275;28;20371;-78
2022/12/09 05:54:15;;;;;;;30.63;10.60;;;-1.20;99.90;;;;;;5062844;28;20552;-78
2022/12/09 05:56:41;;;;;;;28.70;9.98;;;-1.20;99.90;;;;;;5046600;28;20144;-78
2022/12/09 05:59:08;;;;;;;31.95;10.90;;;-1.20;99.90;;;;;;5079866;28;20397;-79
2022/12/09 06:01:34;;;;;;;32.05;11.68;;;-1.20;99.90;;;;;;5079995;28;20040;-78
2022/12/09 06:04:00;;;;;;;30.40;10.85;;;-1.20;99.90;;;;;;5062795;28;20048;-78
2022/12/09 06:06:28;;;;;;;26.08;11.02;;;-1.20;99.90;;;;;;5096872;28;20054;-78
2022/12/09 06:08:59;;;;;;;32.05;10.60;;;-1.30;99.90;;;;;;5062839;28;20050;-79
2022/12/09 06:11:26;;;;;;;35.13;11.85;;;-1.30;99.90;;;;;;5046982;28;20040;-79
2022/12/09 06:13:52;;;;;;;34.78;11.10;;;-1.30;99.90;;;;;;5079172;28;20101;-78
2022/12/09 06:16:20;;;;;;;33.50;11.57;;;-1.20;99.90;;;;;;5079374;28;20040;-78
2022/12/09 06:18:47;;;;;;;43.70;11.93;;;-1.20;99.90;;;;;;5062654;28;20054;-78
2022/12/09 06:21:14;;;;;;;33.38;11.73;;;-1.20;99.90;;;;;;5079444;28;20097;-78
2022/12/09 06:23:42;;;;;;;36.67;11.57;;;-1.30;99.90;;;;;;5079546;28;20062;-79
2022/12/09 06:26:31;;;;;;;42.67;12.73;;;-1.20;99.90;;;;;;5062832;28;20043;-80
2022/12/09 06:28:58;;;;;;;43.95;13.85;;;-1.10;99.90;;;;;;5079976;28;20193;-79
2022/12/09 06:31:25;;;;;;;36.97;12.23;;;-1.10;99.90;;;;;;5063758;28;20052;-79
2022/12/09 06:33:52;;;;;;;37.55;12.13;;;-1.20;99.90;;;;;;5062565;28;20389;-79
2022/12/09 06:36:18;;;;;;;35.92;12.07;;;-1.20;99.90;;;;;;5046625;28;20390;-79
2022/12/09 06:38:44;;;;;;;40.58;13.48;;;-1.20;99.90;;;;;;5079066;28;20127;-81
2022/12/09 06:41:12;;;;;;;33.80;12.20;;;-1.10;99.90;;;;;;5045470;28;20156;-78
2022/12/09 06:43:39;;;;;;;39.08;12.20;;;-0.90;99.90;;;;;;5062335;28;20490;-79
2022/12/09 06:46:21;;;;;;;38.10;13.75;;;-0.80;99.90;;;;;;5045547;28;20059;-78
2022/12/09 06:48:48;;;;;;;45.63;13.52;;;-0.80;99.90;;;;;;5062173;28;20048;-78
2022/12/09 06:51:15;;;;;;;41.33;13.75;;;-0.80;99.90;;;;;;5078939;28;20069;-79
2022/12/09 06:53:41;;;;;;;43.40;14.25;;;-0.90;99.90;;;;;;5079671;28;20044;-79
2022/12/09 06:56:09;;;;;;;42.95;13.80;;;-0.90;99.90;;;;;;5062454;28;20052;-79
2022/12/09 06:58:35;;;;;;;45.15;14.10;;;-0.90;99.90;;;;;;5078767;28;20070;-79
2022/12/09 07:01:06;;;;;;;40.17;13.38;;;-0.90;99.90;;;;;;5079229;28;20040;-78
2022/12/09 07:03:32;;;;;;;46.93;13.63;;;-0.90;99.90;;;;;;5078849;28;20371;-78
2022/12/09 07:05:58;;;;;;;42.13;12.90;;;-0.90;99.90;;;;;;5027929;28;20128;-79
2022/12/09 07:08:24;;;;;;;43.70;14.50;;;-0.80;99.90;;;;;;5062857;28;20058;-79
2022/12/09 07:10:49;;;;;;;47.42;14.27;;;0.20;99.90;;;;;;5061716;28;20414;-80
2022/12/09 07:13:15;;;;;;;41.75;13.15;;;-0.80;99.90;;;;;;5044666;28;20472;-79
2022/12/09 07:15:41;;;;;;;38.22;12.32;;;0.40;99.90;;;;;;5061370;28;20134;-79
2022/12/09 07:18:07;;;;;;;30.17;10.90;;;-1.20;99.90;;;;;;5028375;28;20107;-79
2022/12/09 07:20:33;;;;;;;36.42;11.55;;;-1.30;99.90;;;;;;5078324;28;20117;-78
2022/12/09 07:22:59;;;;;;;37.00;12.10;;;-1.50;99.90;;;;;;5044888;28;20047;-79
2022/12/09 07:25:25;;;;;;;36.83;12.25;;;-1.50;99.90;;;;;;5061662;28;20046;-79
2022/12/09 07:27:50;;;;;;;40.80;13.68;;;-1.40;99.90;;;;;;5078397;28;20075;-78
2022/12/09 07:30:16;;;;;;;47.33;14.20;;;0.00;99.90;;;;;;5061990;28;20050;-79
2022/12/09 07:32:42;;;;;;;51.47;15.48;;;-1.20;99.90;;;;;;5044728;28;20053;-79
2022/12/09 07:35:09;;;;;;;48.70;14.40;;;-1.10;99.90;;;;;;5061360;28;20055;-79
2022/12/09 07:37:35;;;;;;;55.67;16.30;;;-1.10;99.90;;;;;;5061227;28;20488;-79
2022/12/09 07:40:00;;;;;;;51.00;15.93;;;-1.10;99.90;;;;;;5061521;28;20044;-79
2022/12/09 07:42:26;;;;;;;54.65;14.98;;;-1.00;99.90;;;;;;5060938;28;20085;-79
2022/12/09 07:44:52;;;;;;;52.78;16.73;;;-0.90;99.90;;;;;;5044876;28;20366;-79
2022/12/09 07:47:18;;;;;;;55.67;15.82;;;-0.70;99.90;;;;;;5044975;28;20477;-78
2022/12/09 07:49:44;;;;;;;56.60;15.98;;;-0.80;99.90;;;;;;5061638;28;20414;-78
2022/12/09 07:52:11;;;;;;;58.53;15.68;;;-0.80;99.90;;;;;;5077374;28;20048;-79
2022/12/09 07:54:37;;;;;;;55.10;15.52;;;-0.80;99.90;;;;;;5061275;28;20070;-79
2022/12/09 07:57:03;;;;;;;45.30;13.90;;;-0.90;99.90;;;;;;5077757;28;20222;-79
2022/12/09 07:59:29;;;;;;;41.30;12.38;;;-0.90;99.90;;;;;;5077187;28;20443;-80
2022/12/09 08:01:55;;;;;;;38.28;12.13;;;-1.10;99.90;;;;;;5045262;28;20036;-79
2022/12/09 08:04:20;;;;;;;37.03;12.60;;;-1.20;99.90;;;;;;5044926;28;20047;-79
2022/12/09 08:06:46;;;;;;;49.60;15.23;;;-1.30;99.90;;;;;;5074797;28;20091;-78
2022/12/09 08:09:13;;;;;;;46.50;15.05;;;-1.20;99.90;;;;;;5057145;28;20048;-79
2022/12/09 08:11:39;;;;;;;53.25;15.40;;;-1.00;99.90;;;;;;5074461;28;20051;-78
2022/12/09 08:14:07;;;;;;;54.92;16.15;;;-1.00;99.90;;;;;;5058336;28;20044;-78
2022/12/09 08:16:33;;;;;;;55.08;16.70;;;-0.80;99.90;;;;;;5058289;28;20055;-77
2022/12/09 08:18:59;;;;;;;65.20;16.95;;;-0.70;99.90;;;;;;5073669;28;20052;-77
2022/12/09 08:21:28;;;;;;;62.47;17.42;;;-0.70;99.90;;;;;;5057544;28;20509;-76
2022/12/09 08:23:55;;;;;;;56.83;16.60;;;-0.50;99.90;;;;;;5074352;28;20060;-76
2022/12/09 08:26:23;;;;;;;51.22;16.20;;;-0.60;99.90;;;;;;5073192;28;20060;-76
2022/12/09 08:28:50;;;;;;;62.15;17.85;;;-0.60;99.90;;;;;;5055453;28;20044;-75
2022/12/09 08:31:18;;;;;;;56.92;17.45;;;-0.50;99.90;;;;;;5071720;28;20157;-75
2022/12/09 08:33:44;;;;;;;59.95;18.20;;;-0.40;99.90;;;;;;5071852;28;20098;-75
2022/12/09 08:36:19;;;;;;;66.25;19.08;;;-0.30;99.90;;;;;;5054993;28;20040;-75
2022/12/09 08:38:46;;;;;;;69.53;18.67;;;-0.20;99.90;;;;;;5055074;28;20044;-74
2022/12/09 08:41:15;;;;;;;65.95;17.05;;;-0.10;99.90;;;;;;5054812;28;20110;-75
2022/12/09 08:43:42;;;;;;;57.42;16.88;;;-0.10;99.90;;;;;;5054848;28;20102;-75
2022/12/09 08:46:09;;;;;;;55.00;15.85;;;-0.20;99.90;;;;;;5037763;28;20140;-74
2022/12/09 08:48:36;;;;;;;51.55;15.68;;;-0.10;99.90;;;;;;5071344;28;20102;-74
2022/12/09 08:51:03;;;;;;;62.88;18.50;;;0.00;99.90;;;;;;5054450;28;20398;-74
2022/12/09 08:53:29;;;;;;;52.88;15.90;;;0.10;99.90;;;;;;5054819;28;20044;-75
2022/12/09 08:55:55;;;;;;;58.35;18.10;;;0.20;99.90;;;;;;5071625;28;20094;-75
2022/12/09 08:58:21;;;;;;;53.25;17.15;;;0.20;99.90;;;;;;5021763;28;20044;-75
2022/12/09 09:00:47;;;;;;;62.65;18.35;;;0.30;99.90;;;;;;5054568;28;20398;-76
2022/12/09 09:03:13;;;;;;;59.65;17.88;;;0.40;99.90;;;;;;5054341;28;20105;-75
2022/12/09 09:05:38;;;;;;;55.40;17.63;;;0.50;99.90;;;;;;5054358;28;20041;-75
2022/12/09 09:08:04;;;;;;;57.38;18.33;;;0.60;99.90;;;;;;5035968;28;20083;-76
2022/12/09 09:10:30;;;;;;;58.08;19.27;;;0.70;99.90;;;;;;5051158;28;20037;-75
2022/12/09 09:12:56;;;;;;;55.53;18.30;;;0.80;99.90;;;;;;5034660;28;20060;-75
2022/12/09 09:15:25;;;;;;;58.45;17.40;;;0.80;99.90;;;;;;5034593;28;20052;-74
2022/12/09 09:17:52;;;;;;;47.70;16.98;;;0.90;99.90;;;;;;5051401;28;20403;-74
2022/12/09 09:20:18;;;;;;;52.65;17.42;;;1.00;99.90;;;;;;5019119;28;20067;-75
2022/12/09 09:22:44;;;;;;;52.50;18.10;;;1.00;99.90;;;;;;5038243;28;20091;-74
2022/12/09 09:25:10;;;;;;;53.10;17.60;;;1.10;99.90;;;;;;5038545;28;20134;-76
2022/12/09 09:27:36;;;;;;;44.40;16.42;;;1.20;99.90;;;;;;5038613;28;20048;-74
2022/12/09 09:30:03;;;;;;;46.13;16.42;;;1.30;99.90;;;;;;5021997;28;20495;-74
2022/12/09 09:32:31;;;;;;;47.95;17.35;;;1.40;99.90;;;;;;5038169;28;20045;-74
2022/12/09 09:34:57;;;;;;;50.50;17.58;;;1.50;99.90;;;;;;5038633;28;20213;-74
2022/12/09 09:37:23;;;;;;;46.03;15.93;;;1.70;99.90;;;;;;5021542;28;20076;-74
2022/12/09 09:39:48;;;;;;;46.03;16.17;;;1.60;99.90;;;;;;5038236;28;20049;-74
2022/12/09 09:42:23;;;;;;;44.92;17.67;;;2.10;99.90;;;;;;5054583;28;20041;-74
2022/12/09 09:44:52;;;;;;;44.80;16.67;;;1.80;99.90;;;;;;5038112;28;20118;-74
2022/12/09 09:47:30;;;;;;;41.25;15.73;;;1.90;99.90;;;;;;5054748;28;20049;-75
2022/12/09 09:50:05;;;;;;;43.30;16.40;;;1.90;99.90;;;;;;5038290;28;20107;-75
2022/12/09 09:52:34;;;;;;;45.90;17.50;;;2.10;99.90;;;;;;5037653;28;20044;-75
2022/12/09 09:55:15;;;;;;;46.05;17.40;;;2.20;99.90;;;;;;5054339;28;20131;-75
2022/12/09 09:58:16;;;;;;;43.65;17.65;;;2.30;99.90;;;;;;5038070;28;20049;-75
2022/12/09 10:00:56;;;;;;;42.85;16.55;;;2.40;99.90;;;;;;4955336;28;20052;-75
2022/12/09 10:03:47;;;;;;;43.55;17.08;;;3.00;99.90;;;;;;5037385;28;20190;-75
2022/12/09 10:06:16;;;;;;;44.37;17.73;;;2.60;99.90;;;;;;5059574;28;20052;-75
2022/12/09 10:09:02;;;;;;;44.63;17.27;;;2.60;99.90;;;;;;5077874;28;20105;-75
2022/12/09 10:11:36;;;;;;;44.83;17.02;;;2.60;99.90;;;;;;5077514;28;20059;-75
2022/12/09 10:14:34;;;;;;;49.17;18.75;;;2.60;99.90;;;;;;5077665;28;20048;-75
2022/12/09 10:17:09;;;;;;;51.03;18.88;;;2.60;99.90;;;;;;5006171;28;20476;-75
2022/12/09 10:19:40;;;;;;;45.17;16.50;;;2.70;99.90;;;;;;5077276;28;20046;-76
2022/12/09 10:22:12;;;;;;;;;;;2.70;99.90;;;;;;5061116;28;20051;-75
2022/12/09 10:24:46;;;;;;;48.13;18.40;;;2.70;99.90;;;;;;5060681;28;19956;-74
2022/12/09 10:27:40;;;;;;;42.70;16.55;;;2.90;99.90;;;;;;5060899;28;20124;-74
2022/12/09 10:30:11;;;;;;;47.20;19.00;;;2.90;99.90;;;;;;5053112;28;20079;-74
2022/12/09 10:32:39;;;;;;;46.38;18.88;;;2.90;99.90;;;;;;5076317;28;20439;-76
2022/12/09 10:35:29;;;;;;;49.13;19.35;;;3.00;99.90;;;;;;5077221;28;20497;-76
2022/12/09 10:38:11;;;;;;;42.97;17.85;;;3.00;99.90;;;;;;5048152;28;20056;-75
2022/12/09 10:40:45;;;;;;;40.30;17.13;;;3.00;99.90;;;;;;5076701;28;20481;-76
2022/12/09 10:43:40;;;;;;;50.83;19.70;;;2.90;99.90;;;;;;5060340;28;20043;-76
2022/12/09 10:46:20;;;;;;;45.80;19.15;;;2.70;99.90;;;;;;5060469;28;20080;-75
2022/12/09 10:48:45;;;;;;;50.35;20.83;;;2.70;99.90;;;;;;5060402;28;20048;-76
2022/12/09 10:51:25;;;;;;;50.05;19.58;;;2.60;99.90;;;;;;5076944;28;20047;-76
2022/12/09 10:54:02;;;;;;;47.28;19.70;;;2.70;99.90;;;;;;5060333;28;20048;-76
2022/12/09 10:56:29;;;;;;;54.63;20.98;;;2.60;99.90;;;;;;5059760;28;20048;-74
2022/12/09 10:59:17;;;;;;;51.03;20.40;;;3.30;99.90;;;;;;5076924;28;20051;-74
2022/12/09 11:02:07;;;;;;;63.05;22.77;;;2.40;99.90;;;;;;5059844;28;20048;-74
2022/12/09 11:04:38;;;;;;;60.97;21.85;;;2.30;99.90;;;;;;5059800;28;20055;-74
2022/12/09 11:07:19;;;;;;;69.65;20.75;;;2.20;99.90;;;;;;5059286;28;20095;-75
2022/12/09 11:09:53;;;;;;;60.60;16.85;;;2.10;99.90;;;;;;5059769;28;20044;-75
2022/12/09 11:12:32;;;;;;;97.68;20.75;;;2.00;99.90;;;;;;5060129;28;20040;-75
2022/12/09 11:15:03;;;;;;;77.40;20.88;;;1.90;99.90;;;;;;5059918;28;20036;-75
2022/12/09 11:17:31;;;;;;;110.15;22.05;;;1.70;99.90;;;;;;5056288;28;20040;-75
2022/12/09 11:20:18;;;;;;;62.55;15.95;;;1.70;99.90;;;;;;5039784;28;20124;-76
2022/12/09 11:22:44;;;;;;;106.40;23.45;;;1.60;99.90;;;;;;5055941;28;20045;-76
2022/12/09 11:25:10;;;;;;;74.07;22.08;;;1.60;99.90;;;;;;5039753;28;20050;-75
2022/12/09 11:27:58;;;;;;;77.25;22.48;;;1.60;99.90;;;;;;5056119;28;20045;-76
2022/12/09 11:30:37;;;;;;;79.82;20.23;;;1.80;99.90;;;;;;5055978;28;20079;-75
2022/12/09 11:33:22;;;;;;;55.88;16.77;;;1.60;99.90;;;;;;5055961;28;20048;-75
2022/12/09 11:35:48;;;;;;;75.60;21.85;;;1.60;99.90;;;;;;5055994;28;20048;-75
2022/12/09 11:38:34;;;;;;;77.95;21.88;;;1.60;99.90;;;;;;5056137;28;20070;-75
2022/12/09 11:41:09;;;;;;;123.72;25.98;;;1.60;99.90;;;;;;5055927;28;20045;-75
2022/12/09 11:43:38;;;;;;;124.78;24.70;;;1.60;99.90;;;;;;5055144;28;20044;-74
2022/12/09 11:46:21;;;;;;;130.23;25.05;;;1.50;99.90;;;;;;5055963;28;20056;-76
2022/12/09 11:48:52;;;;;;;139.00;25.85;;;1.50;99.90;;;;;;5055763;28;20048;-76
2022/12/09 11:51:31;;;;;;;154.30;24.70;;;1.50;99.90;;;;;;5055975;28;20110;-76
2022/12/09 11:54:21;;;;;;;130.85;26.77;;;1.50;99.90;;;;;;5055824;28;20041;-75
2022/12/09 11:56:49;;;;;;;91.15;23.23;;;1.50;99.90;;;;;;5053419;28;20590;-76
2022/12/09 11:59:18;;;;;;;83.10;21.06;;;1.50;99.90;;;;;;4687589;28;10001288;-76
2022/12/09 12:02:21;;;;;;;86.82;23.27;;;1.50;99.90;;;;;;5056750;28;20054;-76
2022/12/09 12:05:01;;;;;;;72.60;19.50;;;1.50;99.90;;;;;;5056607;28;20052;-76
2022/12/09 12:07:52;;;;;;;58.88;18.80;;;1.50;99.90;;;;;;5072785;28;20413;-75
2022/12/09 12:10:26;;;;;;;67.50;21.23;;;1.40;99.90;;;;;;5056822;28;20499;-76
2022/12/09 12:13:22;;;;;;;58.10;18.25;;;1.40;99.90;;;;;;5073205;28;20059;-76
2022/12/09 12:16:07;;;;;;;88.20;23.25;;;1.40;99.90;;;;;;5056369;28;20105;-75
2022/12/09 12:18:46;;;;;;;94.75;22.48;;;1.50;99.90;;;;;;5056659;28;20055;-76
2022/12/09 12:21:19;;;;;;;100.38;23.15;;;1.50;99.90;;;;;;5072746;28;20098;-76
2022/12/09 12:23:51;;;;;;;95.53;23.30;;;1.50;99.90;;;;;;5072573;28;20051;-76
2022/12/09 12:26:26;;;;;;;86.22;22.38;;;1.50;99.90;;;;;;5072804;28;20047;-76
2022/12/09 12:29:19;;;;;;;82.97;23.50;;;1.50;99.90;;;;;;5056325;28;20063;-76
2022/12/09 12:31:53;;;;;;;95.13;21.55;;;1.50;99.90;;;;;;5055737;28;20044;-76
2022/12/09 12:34:33;;;;;;;83.50;22.85;;;1.50;99.90;;;;;;5073012;28;20048;-76
2022/12/09 12:37:22;;;;;;;71.72;21.75;;;1.50;99.90;;;;;;5056104;28;20048;-75
2022/12/09 12:40:35;;;;;;;64.38;19.33;;;1.50;99.90;;;;;;5056076;28;20051;-77
2022/12/09 12:46:29;;;;;;;65.88;21.05;;;1.40;99.90;;;;;;5072822;28;20458;-75
2022/12/09 12:49:18;;;;;;;62.88;19.67;;;1.40;99.90;;;;;;5055887;28;20059;-75
2022/12/09 12:51:47;;;;;;;60.35;19.63;;;1.40;99.90;;;;;;5072535;28;20052;-76
2022/12/09 12:54:14;;;;;;;71.38;21.92;;;1.40;99.90;;;;;;5073149;28;20461;-76
2022/12/09 12:56:54;;;;;;;73.15;21.85;;;1.40;99.90;;;;;;5059572;28;20048;-77